createdAt,value
2022-10-22T00:00:44.639Z,0.00
2022-10-22T00:01:44.621Z,0.00
2022-10-22T00:02:44.676Z,0.00
2022-10-22T00:03:44.590Z,0.00
2022-10-22T00:05:44.569Z,0.00
2022-10-22T00:06:44.560Z,0.00
2022-10-22T00:07:44.552Z,0.00
2022-10-22T00:08:44.585Z,0.00
2022-10-22T00:09:44.526Z,0.00
2022-10-22T00:10:44.534Z,0.00
2022-10-22T00:11:44.499Z,0.00
2022-10-22T00:12:44.499Z,0.00
2022-10-22T00:13:44.518Z,0.00
2022-10-22T00:14:44.473Z,0.00
2022-10-22T00:15:44.465Z,0.00
2022-10-22T00:16:44.446Z,0.00
2022-10-22T00:17:44.442Z,0.00
2022-10-22T00:18:44.450Z,0.00
2022-10-22T00:19:44.416Z,0.00
2022-10-22T00:20:44.420Z,0.00
2022-10-22T00:21:44.404Z,0.00
2022-10-22T00:22:44.458Z,0.00
2022-10-22T00:23:44.375Z,0.00
2022-10-22T00:24:44.433Z,0.00
2022-10-22T00:25:44.344Z,0.00
2022-10-22T00:26:44.346Z,0.00
2022-10-22T00:27:44.322Z,0.00
2022-10-22T00:28:44.322Z,0.00
2022-10-22T00:29:44.306Z,0.00
2022-10-22T00:30:44.299Z,0.00
2022-10-22T00:31:44.348Z,0.00
2022-10-22T00:32:44.283Z,0.00
2022-10-22T00:33:44.278Z,0.00
2022-10-22T00:34:44.247Z,0.00
2022-10-22T00:35:44.240Z,0.00
2022-10-22T00:36:44.232Z,0.00
2022-10-22T00:37:44.204Z,0.00
2022-10-22T00:38:44.229Z,0.00
2022-10-22T00:39:44.191Z,0.00
2022-10-22T00:40:44.179Z,0.00
2022-10-22T00:41:44.188Z,0.00
2022-10-22T00:42:44.157Z,0.00
2022-10-22T00:43:44.165Z,0.00
2022-10-22T00:44:44.139Z,0.00
2022-10-22T00:45:44.149Z,0.00
2022-10-22T00:46:44.110Z,0.00
2022-10-22T00:47:44.104Z,0.00
2022-10-22T00:48:44.102Z,0.00
2022-10-22T00:49:44.096Z,0.00
2022-10-22T00:50:44.085Z,0.00
2022-10-22T00:51:44.053Z,0.00
2022-10-22T00:52:44.048Z,0.00
2022-10-22T00:53:44.044Z,0.00
2022-10-22T00:54:44.036Z,0.00
2022-10-22T00:55:44.006Z,0.00
2022-10-22T00:56:43.997Z,0.00
2022-10-22T00:57:44.056Z,0.00
2022-10-22T00:58:44.035Z,0.00
2022-10-22T00:59:43.966Z,0.00
2022-10-22T01:00:44.074Z,0.00
2022-10-22T01:01:43.956Z,0.00
2022-10-22T01:02:44.008Z,0.00
2022-10-22T01:03:43.920Z,0.00
2022-10-22T01:04:43.929Z,0.00
2022-10-22T01:05:43.896Z,0.00
2022-10-22T01:06:43.911Z,0.00
2022-10-22T01:07:43.877Z,0.00
2022-10-22T01:08:43.915Z,0.00
2022-10-22T01:09:43.866Z,0.00
2022-10-22T01:10:43.851Z,0.00
2022-10-22T01:11:43.835Z,0.00
2022-10-22T01:12:43.818Z,0.00
2022-10-22T01:13:43.807Z,0.00
2022-10-22T01:14:43.829Z,0.00
2022-10-22T01:15:43.785Z,0.00
2022-10-22T01:16:43.778Z,0.00
2022-10-22T01:17:43.843Z,0.00
2022-10-22T01:18:43.759Z,0.00
2022-10-22T01:19:44.045Z,0.00
2022-10-22T01:20:43.738Z,0.00
2022-10-22T01:21:43.726Z,0.00
2022-10-22T01:22:43.720Z,0.00
2022-10-22T01:23:43.702Z,0.00
2022-10-22T01:24:43.691Z,0.00
2022-10-22T01:25:43.686Z,0.00
2022-10-22T01:26:43.663Z,0.00
2022-10-22T01:27:43.911Z,0.00
2022-10-22T01:28:43.642Z,0.00
2022-10-22T01:29:43.638Z,0.00
2022-10-22T01:30:43.633Z,0.00
2022-10-22T01:31:43.647Z,0.00
2022-10-22T01:32:43.617Z,0.00
2022-10-22T01:33:43.576Z,0.00
2022-10-22T01:34:43.571Z,0.00
2022-10-22T01:35:43.600Z,0.00
2022-10-22T01:36:43.567Z,0.00
2022-10-22T01:37:43.731Z,0.00
2022-10-22T01:38:43.584Z,0.00
2022-10-22T01:39:43.514Z,0.00
2022-10-22T01:40:43.511Z,0.00
2022-10-22T01:41:43.502Z,0.00
2022-10-22T01:42:43.487Z,0.00
2022-10-22T01:43:43.463Z,0.00
2022-10-22T01:44:43.470Z,0.00
2022-10-22T01:45:43.448Z,0.00
2022-10-22T01:46:43.456Z,0.00
2022-10-22T01:47:43.878Z,0.00
2022-10-22T01:48:43.425Z,0.00
2022-10-22T01:49:43.408Z,0.00
2022-10-22T01:50:43.401Z,0.00
2022-10-22T01:51:43.409Z,0.00
2022-10-22T01:52:43.371Z,0.00
2022-10-22T01:54:43.363Z,0.00
2022-10-22T01:55:43.340Z,0.00
2022-10-22T01:56:43.338Z,0.00
2022-10-22T01:57:43.566Z,0.00
2022-10-22T01:58:43.303Z,0.00
2022-10-22T01:59:43.297Z,0.00
2022-10-22T02:00:43.314Z,0.00
2022-10-22T02:01:43.306Z,0.00
2022-10-22T02:02:43.425Z,0.00
2022-10-22T02:03:44.205Z,0.00
2022-10-22T02:04:43.247Z,0.00
2022-10-22T02:05:43.383Z,0.00
2022-10-22T02:06:43.245Z,0.00
2022-10-22T02:07:43.645Z,0.00
2022-10-22T02:08:43.256Z,0.00
2022-10-22T02:09:43.190Z,0.00
2022-10-22T02:10:43.171Z,0.00
2022-10-22T02:11:43.161Z,0.00
2022-10-22T02:12:43.503Z,0.00
2022-10-22T02:13:43.186Z,0.00
2022-10-22T02:14:43.120Z,0.00
2022-10-22T02:15:43.118Z,0.00
2022-10-22T02:16:43.100Z,0.00
2022-10-22T02:17:43.099Z,0.00
2022-10-22T02:18:43.201Z,0.00
2022-10-22T02:19:43.067Z,0.00
2022-10-22T02:20:43.066Z,0.00
2022-10-22T02:21:43.051Z,0.00
2022-10-22T02:22:43.384Z,0.00
2022-10-22T02:23:43.158Z,0.00
2022-10-22T02:24:43.014Z,0.00
2022-10-22T02:25:43.004Z,0.00
2022-10-22T02:26:42.988Z,0.00
2022-10-22T02:27:42.985Z,0.00
2022-10-22T02:28:43.011Z,0.00
2022-10-22T02:29:42.966Z,0.00
2022-10-22T02:30:42.975Z,0.00
2022-10-22T02:31:42.946Z,0.00
2022-10-22T02:32:43.067Z,0.00
2022-10-22T02:33:42.927Z,0.00
2022-10-22T02:34:43.069Z,0.00
2022-10-22T02:35:42.891Z,0.00
2022-10-22T02:36:46.647Z,0.00
2022-10-22T02:37:42.872Z,0.00
2022-10-22T02:38:42.865Z,0.00
2022-10-22T02:39:42.858Z,0.00
2022-10-22T02:40:42.835Z,0.00
2022-10-22T02:41:42.824Z,0.00
2022-10-22T02:42:43.037Z,0.00
2022-10-22T02:43:42.818Z,0.00
2022-10-22T02:44:42.807Z,0.00
2022-10-22T02:45:42.779Z,0.00
2022-10-22T02:46:42.770Z,0.00
2022-10-22T02:47:42.759Z,0.00
2022-10-22T02:48:42.736Z,0.00
2022-10-22T02:49:42.744Z,0.00
2022-10-22T02:50:42.720Z,0.00
2022-10-22T02:51:42.719Z,0.00
2022-10-22T02:52:43.100Z,0.00
2022-10-22T02:53:42.687Z,0.00
2022-10-22T02:54:42.943Z,0.00
2022-10-22T02:55:42.690Z,0.00
2022-10-22T02:56:42.658Z,0.00
2022-10-22T02:57:42.960Z,0.00
2022-10-22T02:58:42.639Z,0.00
2022-10-22T02:59:42.630Z,0.00
2022-10-22T03:00:43.330Z,0.00
2022-10-22T03:01:42.682Z,0.00
2022-10-22T03:02:42.668Z,0.00
2022-10-22T03:03:42.597Z,0.00
2022-10-22T03:04:42.581Z,0.00
2022-10-22T03:05:42.550Z,0.00
2022-10-22T03:06:42.541Z,0.00
2022-10-22T03:07:42.935Z,0.00
2022-10-22T03:08:42.570Z,0.00
2022-10-22T03:09:42.534Z,0.00
2022-10-22T03:10:42.506Z,0.00
2022-10-22T03:11:42.497Z,0.00
2022-10-22T03:12:42.480Z,0.00
2022-10-22T03:13:42.487Z,0.00
2022-10-22T03:14:42.467Z,0.00
2022-10-22T03:15:42.446Z,0.00
2022-10-22T03:16:42.433Z,0.00
2022-10-22T03:17:42.759Z,0.00
2022-10-22T03:18:42.415Z,0.00
2022-10-22T03:19:43.295Z,0.00
2022-10-22T03:20:42.385Z,0.00
2022-10-22T03:21:42.391Z,0.00
2022-10-22T03:22:42.359Z,0.00
2022-10-22T03:23:43.298Z,0.00
2022-10-22T03:24:42.364Z,0.00
2022-10-22T03:25:42.349Z,0.00
2022-10-22T03:26:42.337Z,0.00
2022-10-22T03:27:42.692Z,0.00
2022-10-22T03:28:42.366Z,0.00
2022-10-22T03:29:42.295Z,0.00
2022-10-22T03:30:42.289Z,0.00
2022-10-22T03:31:42.267Z,0.00
2022-10-22T03:32:42.260Z,0.00
2022-10-22T03:33:42.250Z,0.00
2022-10-22T03:34:42.252Z,0.00
2022-10-22T03:35:42.259Z,0.00
2022-10-22T03:36:42.243Z,0.00
2022-10-22T03:37:42.524Z,0.00
2022-10-22T03:38:42.202Z,0.00
2022-10-22T03:39:42.170Z,0.00
2022-10-22T03:40:42.214Z,0.00
2022-10-22T03:41:42.160Z,0.00
2022-10-22T03:42:42.179Z,0.00
2022-10-22T03:43:42.127Z,0.00
2022-10-22T03:44:42.121Z,0.00
2022-10-22T03:45:42.247Z,0.00
2022-10-22T03:46:42.111Z,0.00
2022-10-22T03:47:42.449Z,0.00
2022-10-22T03:48:42.087Z,0.00
2022-10-22T03:49:42.068Z,0.00
2022-10-22T03:50:42.177Z,0.00
2022-10-22T03:51:42.802Z,0.00
2022-10-22T03:52:42.064Z,0.00
2022-10-22T03:53:42.052Z,0.00
2022-10-22T03:54:42.026Z,0.00
2022-10-22T03:55:42.147Z,0.00
2022-10-22T03:56:41.990Z,0.00
2022-10-22T03:57:42.261Z,0.00
2022-10-22T03:58:41.967Z,0.00
2022-10-22T03:59:41.990Z,0.00
2022-10-22T04:00:42.002Z,0.00
2022-10-22T04:01:41.980Z,0.00
2022-10-22T04:02:41.962Z,0.00
2022-10-22T04:03:41.915Z,0.00
2022-10-22T04:04:41.910Z,0.00
2022-10-22T04:05:41.931Z,0.00
2022-10-22T04:06:41.897Z,0.00
2022-10-22T04:07:42.278Z,0.00
2022-10-22T04:08:41.902Z,0.00
2022-10-22T04:09:41.843Z,0.00
2022-10-22T04:10:41.834Z,0.00
2022-10-22T04:11:41.840Z,0.00
2022-10-22T04:12:41.817Z,0.00
2022-10-22T04:13:41.838Z,0.00
2022-10-22T04:14:41.795Z,0.00
2022-10-22T04:15:41.837Z,0.00
2022-10-22T04:16:41.805Z,0.00
2022-10-22T04:17:42.018Z,0.00
2022-10-22T04:18:41.760Z,0.00
2022-10-22T04:19:41.736Z,0.00
2022-10-22T04:20:42.302Z,0.00
2022-10-22T04:21:41.750Z,0.00
2022-10-22T04:22:41.702Z,0.00
2022-10-22T04:23:41.685Z,0.00
2022-10-22T04:24:41.748Z,0.00
2022-10-22T04:25:41.663Z,0.00
2022-10-22T04:26:41.670Z,0.00
2022-10-22T04:27:41.909Z,0.00
2022-10-22T04:28:41.650Z,0.00
2022-10-22T04:29:41.631Z,0.00
2022-10-22T04:30:41.630Z,0.00
2022-10-22T04:31:41.617Z,0.00
2022-10-22T04:32:41.604Z,0.00
2022-10-22T04:33:41.607Z,0.00
2022-10-22T04:34:41.587Z,0.00
2022-10-22T04:35:41.576Z,0.00
2022-10-22T04:36:41.628Z,0.00
2022-10-22T04:37:41.939Z,0.00
2022-10-22T04:38:41.542Z,0.00
2022-10-22T04:39:41.519Z,0.00
2022-10-22T04:40:41.520Z,0.00
2022-10-22T04:41:41.585Z,0.00
2022-10-22T04:42:41.491Z,0.00
2022-10-22T04:43:41.474Z,0.00
2022-10-22T04:44:41.480Z,0.00
2022-10-22T04:45:41.454Z,0.00
2022-10-22T04:46:41.458Z,0.00
2022-10-22T04:47:41.830Z,0.00
2022-10-22T04:48:41.423Z,0.00
2022-10-22T04:49:41.462Z,0.00
2022-10-22T04:50:41.411Z,0.00
2022-10-22T04:51:41.428Z,0.00
2022-10-22T04:52:41.399Z,0.00
2022-10-22T04:53:41.406Z,0.00
2022-10-22T04:54:41.368Z,0.00
2022-10-22T04:55:41.344Z,0.00
2022-10-22T04:56:41.345Z,0.00
2022-10-22T04:57:41.619Z,0.00
2022-10-22T04:58:41.322Z,0.00
2022-10-22T04:59:41.296Z,0.00
2022-10-22T05:00:41.346Z,0.00
2022-10-22T05:01:42.933Z,0.00
2022-10-22T05:02:41.282Z,0.00
2022-10-22T05:03:41.266Z,0.00
2022-10-22T05:04:41.261Z,0.00
2022-10-22T05:05:41.249Z,0.00
2022-10-22T05:06:41.244Z,0.00
2022-10-22T05:07:41.559Z,0.00
2022-10-22T05:08:41.327Z,0.00
2022-10-22T05:09:41.214Z,0.00
2022-10-22T05:10:41.193Z,0.00
2022-10-22T05:11:41.192Z,0.00
2022-10-22T05:12:41.293Z,0.00
2022-10-22T05:13:41.145Z,0.00
2022-10-22T05:14:44.104Z,0.00
2022-10-22T05:15:41.129Z,0.00
2022-10-22T05:16:41.195Z,0.00
2022-10-22T05:17:41.532Z,0.00
2022-10-22T05:18:41.105Z,0.00
2022-10-22T05:19:41.086Z,0.00
2022-10-22T05:20:41.097Z,0.00
2022-10-22T05:21:41.085Z,0.00
2022-10-22T05:22:41.075Z,0.00
2022-10-22T05:23:41.035Z,4.00
2022-10-22T05:24:41.031Z,4.00
2022-10-22T05:25:41.018Z,0.00
2022-10-22T05:26:41.009Z,4.00
2022-10-22T05:27:41.450Z,4.00
2022-10-22T05:28:41.008Z,4.00
2022-10-22T05:29:40.984Z,4.00
2022-10-22T05:30:41.757Z,4.00
2022-10-22T05:31:41.032Z,8.00
2022-10-22T05:32:40.959Z,4.00
2022-10-22T05:33:41.001Z,8.00
2022-10-22T05:34:40.974Z,4.00
2022-10-22T05:35:43.205Z,8.00
2022-10-22T05:36:40.911Z,8.00
2022-10-22T05:37:41.243Z,12.00
2022-10-22T05:38:40.905Z,16.00
2022-10-22T05:39:40.924Z,16.00
2022-10-22T05:40:40.860Z,20.00
2022-10-22T05:41:40.919Z,20.00
2022-10-22T05:42:41.180Z,24.00
2022-10-22T05:43:40.841Z,24.00
2022-10-22T05:44:40.894Z,28.00
2022-10-22T05:45:40.796Z,32.00
2022-10-22T05:46:40.793Z,32.00
2022-10-22T05:47:41.393Z,36.00
2022-10-22T05:48:40.845Z,40.00
2022-10-22T05:49:40.771Z,40.00
2022-10-22T05:50:40.762Z,44.00
2022-10-22T05:51:40.741Z,44.00
2022-10-22T05:52:40.920Z,48.00
2022-10-22T05:53:40.744Z,52.00
2022-10-22T05:54:40.707Z,60.00
2022-10-22T05:55:40.707Z,60.00
2022-10-22T05:56:40.682Z,64.00
2022-10-22T05:57:40.669Z,68.00
2022-10-22T05:58:40.865Z,72.00
2022-10-22T05:59:40.671Z,76.00
2022-10-22T06:00:40.643Z,80.00
2022-10-22T06:01:40.629Z,80.00
2022-10-22T06:02:40.895Z,84.00
2022-10-22T06:03:40.813Z,88.00
2022-10-22T06:04:41.335Z,92.00
2022-10-22T06:05:40.590Z,92.00
2022-10-22T06:06:40.635Z,96.00
2022-10-22T06:07:41.240Z,104.00
2022-10-22T06:08:40.607Z,108.00
2022-10-22T06:09:40.550Z,112.00
2022-10-22T06:10:40.661Z,120.00
2022-10-22T06:11:40.559Z,128.00
2022-10-22T06:12:40.903Z,132.00
2022-10-22T06:13:40.547Z,144.00
2022-10-22T06:14:41.268Z,152.00
2022-10-22T06:15:40.475Z,164.00
2022-10-22T06:16:40.481Z,172.00
2022-10-22T06:17:40.461Z,172.00
2022-10-22T06:18:40.461Z,180.00
2022-10-22T06:19:40.510Z,192.00
2022-10-22T06:20:40.472Z,200.00
2022-10-22T06:21:40.410Z,212.00
2022-10-22T06:22:40.818Z,228.00
2022-10-22T06:23:40.404Z,240.00
2022-10-22T06:24:42.869Z,252.00
2022-10-22T06:25:40.363Z,268.00
2022-10-22T06:26:40.358Z,284.00
2022-10-22T06:27:40.354Z,300.00
2022-10-22T06:28:40.353Z,308.00
2022-10-22T06:29:40.343Z,320.00
2022-10-22T06:30:42.996Z,328.00
2022-10-22T06:31:40.311Z,336.00
2022-10-22T06:32:40.518Z,336.00
2022-10-22T06:33:40.330Z,340.00
2022-10-22T06:34:40.292Z,344.00
2022-10-22T06:35:40.263Z,344.00
2022-10-22T06:37:40.507Z,348.00
2022-10-22T06:38:40.232Z,348.00
2022-10-22T06:39:40.237Z,348.00
2022-10-22T06:40:40.216Z,348.00
2022-10-22T06:41:40.205Z,348.00
2022-10-22T06:42:40.507Z,344.00
2022-10-22T06:43:40.202Z,344.00
2022-10-22T06:44:40.168Z,344.00
2022-10-22T06:45:40.157Z,348.00
2022-10-22T06:46:43.395Z,356.00
2022-10-22T06:47:40.352Z,372.00
2022-10-22T06:48:40.134Z,380.00
2022-10-22T06:49:40.126Z,392.00
2022-10-22T06:50:40.094Z,404.00
2022-10-22T06:51:40.124Z,416.00
2022-10-22T06:52:40.085Z,436.00
2022-10-22T06:53:40.080Z,456.00
2022-10-22T06:54:40.079Z,472.00
2022-10-22T06:55:40.043Z,492.00
2022-10-22T06:56:40.043Z,508.00
2022-10-22T06:57:40.361Z,516.00
2022-10-22T06:58:40.076Z,532.00
2022-10-22T06:59:40.005Z,532.00
2022-10-22T07:00:39.990Z,536.00
2022-10-22T07:01:40.034Z,544.00
2022-10-22T07:02:40.179Z,548.00
2022-10-22T07:03:39.963Z,548.00
2022-10-22T07:04:39.949Z,544.00
2022-10-22T07:05:39.988Z,528.00
2022-10-22T07:06:39.933Z,516.00
2022-10-22T07:07:39.929Z,496.00
2022-10-22T07:08:39.952Z,488.00
2022-10-22T07:09:39.896Z,488.00
2022-10-22T07:10:39.948Z,488.00
2022-10-22T07:11:39.865Z,508.00
2022-10-22T07:12:40.208Z,528.00
2022-10-22T07:13:39.856Z,552.00
2022-10-22T07:14:39.841Z,588.00
2022-10-22T07:15:39.871Z,620.00
2022-10-22T07:16:39.833Z,644.00
2022-10-22T07:18:39.794Z,704.00
2022-10-22T07:19:39.847Z,724.00
2022-10-22T07:20:39.799Z,748.00
2022-10-22T07:21:39.788Z,760.00
2022-10-22T07:22:40.170Z,788.00
2022-10-22T07:23:39.749Z,796.00
2022-10-22T07:24:39.722Z,808.00
2022-10-22T07:25:39.735Z,828.00
2022-10-22T07:26:39.709Z,840.00
2022-10-22T07:27:39.901Z,860.00
2022-10-22T07:28:39.691Z,876.00
2022-10-22T07:29:39.679Z,896.00
2022-10-22T07:30:39.688Z,912.00
2022-10-22T07:31:39.748Z,936.00
2022-10-22T07:32:39.651Z,960.00
2022-10-22T07:33:39.657Z,988.00
2022-10-22T07:34:43.073Z,1020.00
2022-10-22T07:35:39.628Z,1040.00
2022-10-22T07:36:39.616Z,1056.00
2022-10-22T07:37:39.957Z,1004.00
2022-10-22T07:38:39.587Z,1004.00
2022-10-22T07:39:39.566Z,996.00
2022-10-22T07:40:39.577Z,976.00
2022-10-22T07:41:39.537Z,972.00
2022-10-22T07:42:39.566Z,952.00
2022-10-22T07:43:39.551Z,932.00
2022-10-22T07:44:39.515Z,948.00
2022-10-22T07:45:39.523Z,928.00
2022-10-22T07:46:39.483Z,896.00
2022-10-22T07:47:39.853Z,844.00
2022-10-22T07:48:39.489Z,816.00
2022-10-22T07:49:39.468Z,776.00
2022-10-22T07:50:39.573Z,748.00
2022-10-22T07:51:39.447Z,712.00
2022-10-22T07:52:40.023Z,696.00
2022-10-22T07:53:39.430Z,684.00
2022-10-22T07:54:39.426Z,688.00
2022-10-22T07:55:39.426Z,680.00
2022-10-22T07:56:39.381Z,700.00
2022-10-22T07:57:39.367Z,732.00
2022-10-22T07:58:39.355Z,752.00
2022-10-22T07:59:39.372Z,760.00
2022-10-22T08:00:39.359Z,724.00
2022-10-22T08:01:39.377Z,720.00
2022-10-22T08:02:39.700Z,740.00
2022-10-22T08:03:39.414Z,772.00
2022-10-22T08:04:39.301Z,800.00
2022-10-22T08:05:39.338Z,820.00
2022-10-22T08:06:39.286Z,872.00
2022-10-22T08:07:39.275Z,908.00
2022-10-22T08:08:39.289Z,916.00
2022-10-22T08:09:39.238Z,924.00
2022-10-22T08:10:39.228Z,940.00
2022-10-22T08:11:39.242Z,940.00
2022-10-22T08:12:39.671Z,940.00
2022-10-22T08:13:44.156Z,936.00
2022-10-22T08:14:39.175Z,936.00
2022-10-22T08:15:39.282Z,940.00
2022-10-22T08:16:39.180Z,936.00
2022-10-22T08:17:39.563Z,928.00
2022-10-22T08:18:39.150Z,912.00
2022-10-22T08:19:39.933Z,912.00
2022-10-22T08:20:39.212Z,904.00
2022-10-22T08:21:39.105Z,896.00
2022-10-22T08:22:39.081Z,888.00
2022-10-22T08:23:39.077Z,880.00
2022-10-22T08:24:39.079Z,888.00
2022-10-22T08:25:39.061Z,904.00
2022-10-22T08:26:39.090Z,920.00
2022-10-22T08:27:39.388Z,932.00
2022-10-22T08:28:39.031Z,948.00
2022-10-22T08:29:39.021Z,960.00
2022-10-22T08:30:38.999Z,980.00
2022-10-22T08:31:39.024Z,1004.00
2022-10-22T08:32:38.983Z,1028.00
2022-10-22T08:33:39.062Z,1020.00
2022-10-22T08:34:39.069Z,1012.00
2022-10-22T08:35:38.954Z,1004.00
2022-10-22T08:36:38.959Z,1016.00
2022-10-22T08:37:39.241Z,1056.00
2022-10-22T08:38:38.905Z,1116.00
2022-10-22T08:39:38.907Z,1164.00
2022-10-22T08:40:39.011Z,1196.00
2022-10-22T08:41:38.910Z,1236.00
2022-10-22T08:42:39.165Z,1276.00
2022-10-22T08:43:38.860Z,1308.00
2022-10-22T08:44:38.857Z,1340.00
2022-10-22T08:45:38.834Z,1356.00
2022-10-22T08:46:38.874Z,1368.00
2022-10-22T08:47:38.808Z,1388.00
2022-10-22T08:48:38.816Z,1396.00
2022-10-22T08:49:41.354Z,1408.00
2022-10-22T08:50:38.833Z,1416.00
2022-10-22T08:51:38.839Z,1428.00
2022-10-22T08:52:39.224Z,1448.00
2022-10-22T08:53:38.750Z,1464.00
2022-10-22T08:54:38.745Z,1488.00
2022-10-22T08:55:38.766Z,1504.00
2022-10-22T08:56:38.743Z,1516.00
2022-10-22T08:57:38.730Z,1528.00
2022-10-22T08:58:38.779Z,1548.00
2022-10-22T08:59:38.686Z,1576.00
2022-10-22T09:00:38.663Z,1608.00
2022-10-22T09:01:38.656Z,1636.00
2022-10-22T09:02:39.136Z,1656.00
2022-10-22T09:03:38.645Z,1680.00
2022-10-22T09:04:38.655Z,1688.00
2022-10-22T09:05:38.632Z,1696.00
2022-10-22T09:06:38.594Z,1688.00
2022-10-22T09:07:39.052Z,1644.00
2022-10-22T09:08:38.713Z,1540.00
2022-10-22T09:09:38.583Z,1444.00
2022-10-22T09:10:38.585Z,1380.00
2022-10-22T09:11:38.567Z,1392.00
2022-10-22T09:12:38.545Z,1448.00
2022-10-22T09:13:38.567Z,1436.00
2022-10-22T09:14:38.513Z,1392.00
2022-10-22T09:15:38.530Z,1408.00
2022-10-22T09:16:38.489Z,1460.00
2022-10-22T09:17:38.571Z,1440.00
2022-10-22T09:18:38.466Z,1428.00
2022-10-22T09:19:38.476Z,1472.00
2022-10-22T09:20:38.455Z,1532.00
2022-10-22T09:21:38.445Z,1664.00
2022-10-22T09:22:38.425Z,1700.00
2022-10-22T09:23:38.411Z,1696.00
2022-10-22T09:24:38.418Z,1624.00
2022-10-22T09:25:38.414Z,1496.00
2022-10-22T09:26:38.372Z,1436.00
2022-10-22T09:27:38.699Z,1360.00
2022-10-22T09:28:38.354Z,1340.00
2022-10-22T09:29:38.361Z,1376.00
2022-10-22T09:30:38.330Z,1356.00
2022-10-22T09:31:38.331Z,1396.00
2022-10-22T09:32:38.747Z,1460.00
2022-10-22T09:33:38.315Z,1516.00
2022-10-22T09:34:38.322Z,1500.00
2022-10-22T09:35:38.286Z,1420.00
2022-10-22T09:36:38.278Z,1288.00
2022-10-22T09:37:38.291Z,1236.00
2022-10-22T09:38:38.248Z,1340.00
2022-10-22T09:39:38.239Z,1412.00
2022-10-22T09:40:38.243Z,1488.00
2022-10-22T09:41:38.213Z,1580.00
2022-10-22T09:42:38.253Z,1724.00
2022-10-22T09:43:38.261Z,1752.00
2022-10-22T09:44:38.274Z,1736.00
2022-10-22T09:45:38.175Z,1656.00
2022-10-22T09:46:38.156Z,1632.00
2022-10-22T09:47:43.245Z,1672.00
2022-10-22T09:48:38.148Z,1596.00
2022-10-22T09:49:38.135Z,1528.00
2022-10-22T09:50:38.150Z,1760.00
2022-10-22T09:51:38.112Z,1824.00
2022-10-22T09:52:38.149Z,1572.00
2022-10-22T09:53:38.113Z,1560.00
2022-10-22T09:54:38.076Z,1488.00
2022-10-22T09:55:38.078Z,1344.00
2022-10-22T09:56:38.066Z,1292.00
2022-10-22T09:57:39.883Z,1340.00
2022-10-22T09:58:38.029Z,1264.00
2022-10-22T09:59:38.135Z,1096.00
2022-10-22T10:00:38.039Z,1112.00
2022-10-22T10:01:37.995Z,1120.00
2022-10-22T10:02:39.079Z,1160.00
2022-10-22T10:03:37.984Z,1196.00
2022-10-22T10:04:37.964Z,1052.00
2022-10-22T10:05:37.962Z,1136.00
2022-10-22T10:06:37.988Z,1084.00
2022-10-22T10:07:37.938Z,1016.00
2022-10-22T10:08:37.978Z,1056.00
2022-10-22T10:09:37.933Z,1044.00
2022-10-22T10:10:37.896Z,1088.00
2022-10-22T10:11:37.918Z,1152.00
2022-10-22T10:12:37.917Z,1172.00
2022-10-22T10:13:37.889Z,1144.00
2022-10-22T10:14:37.997Z,1124.00
2022-10-22T10:15:37.843Z,1080.00
2022-10-22T10:16:37.929Z,1004.00
2022-10-22T10:17:37.885Z,836.00
2022-10-22T10:18:37.829Z,836.00
2022-10-22T10:19:37.829Z,792.00
2022-10-22T10:20:37.801Z,816.00
2022-10-22T10:21:37.799Z,900.00
2022-10-22T10:22:37.784Z,960.00
2022-10-22T10:23:37.761Z,968.00
2022-10-22T10:24:37.751Z,972.00
2022-10-22T10:25:37.745Z,968.00
2022-10-22T10:26:37.746Z,956.00
2022-10-22T10:27:37.740Z,1008.00
2022-10-22T10:28:37.751Z,1176.00
2022-10-22T10:30:37.762Z,1352.00
2022-10-22T10:31:37.683Z,1392.00
2022-10-22T10:32:37.670Z,1396.00
2022-10-22T10:33:37.688Z,1376.00
2022-10-22T10:34:37.656Z,1360.00
2022-10-22T10:35:37.628Z,1316.00
2022-10-22T10:36:37.669Z,1384.00
2022-10-22T10:37:37.626Z,1344.00
2022-10-22T10:38:37.587Z,1344.00
2022-10-22T10:39:37.635Z,1324.00
2022-10-22T10:40:37.570Z,1248.00
2022-10-22T10:41:37.618Z,1260.00
2022-10-22T10:42:37.580Z,1176.00
2022-10-22T10:43:37.605Z,1232.00
2022-10-22T10:44:37.618Z,1120.00
2022-10-22T10:45:37.533Z,1004.00
2022-10-22T10:46:37.550Z,996.00
2022-10-22T10:47:37.548Z,1008.00
2022-10-22T10:48:37.491Z,992.00
2022-10-22T10:49:37.488Z,1148.00
2022-10-22T10:50:37.551Z,1148.00
2022-10-22T10:51:37.454Z,1148.00
2022-10-22T10:52:37.442Z,1288.00
2022-10-22T10:53:37.426Z,1664.00
2022-10-22T10:55:37.435Z,2588.00
2022-10-22T10:56:39.211Z,2636.00
2022-10-22T10:57:37.420Z,2684.00
2022-10-22T10:58:37.402Z,2860.00
2022-10-22T10:59:37.439Z,3032.00
2022-10-22T11:00:37.446Z,3416.00
2022-10-22T11:01:37.390Z,3308.00
2022-10-22T11:02:37.355Z,4136.00
2022-10-22T11:03:37.314Z,3984.00
2022-10-22T11:04:37.305Z,5392.00
2022-10-22T11:05:37.291Z,3292.00
2022-10-22T11:06:37.314Z,2192.00
2022-10-22T11:07:37.273Z,3196.00
2022-10-22T11:08:37.303Z,3756.00
2022-10-22T11:09:37.261Z,6008.00
2022-10-22T11:10:37.258Z,8424.00
2022-10-22T11:11:37.232Z,7124.00
2022-10-22T11:12:37.232Z,4092.00
2022-10-22T11:13:37.205Z,3828.00
2022-10-22T11:14:37.365Z,2868.00
2022-10-22T11:15:37.209Z,6524.00
2022-10-22T11:16:37.173Z,4088.00
2022-10-22T11:17:37.169Z,3324.00
2022-10-22T11:18:37.170Z,1740.00
2022-10-22T11:19:50.833Z,1836.00
2022-10-22T11:20:37.135Z,2264.00
2022-10-22T11:21:37.125Z,2096.00
2022-10-22T11:22:37.115Z,2032.00
2022-10-22T11:23:37.108Z,7508.00
2022-10-22T11:24:37.093Z,6988.00
2022-10-22T11:25:37.077Z,3984.00
2022-10-22T11:26:37.068Z,6540.00
2022-10-22T11:27:37.240Z,8416.00
2022-10-22T11:28:37.053Z,8468.00
2022-10-22T11:29:37.026Z,8516.00
2022-10-22T11:30:37.027Z,8028.00
2022-10-22T11:31:37.015Z,8500.00
2022-10-22T11:32:37.005Z,8364.00
2022-10-22T11:33:36.988Z,8256.00
2022-10-22T11:34:37.016Z,8084.00
2022-10-22T11:35:36.964Z,7452.00
2022-10-22T11:36:36.961Z,6196.00
2022-10-22T11:37:36.948Z,6292.00
2022-10-22T11:38:36.928Z,6548.00
2022-10-22T11:39:36.926Z,5708.00
2022-10-22T11:40:36.912Z,3000.00
2022-10-22T11:41:36.902Z,4772.00
2022-10-22T11:42:36.895Z,5260.00
2022-10-22T11:43:36.871Z,6132.00
2022-10-22T11:44:36.876Z,5784.00
2022-10-22T11:45:37.082Z,2888.00
2022-10-22T11:46:36.857Z,5264.00
2022-10-22T11:47:36.835Z,5248.00
2022-10-22T11:48:36.825Z,5104.00
2022-10-22T11:49:36.814Z,4756.00
2022-10-22T11:50:36.821Z,4528.00
2022-10-22T11:51:36.801Z,4208.00
2022-10-22T11:52:36.790Z,3764.00
2022-10-22T11:53:36.772Z,3752.00
2022-10-22T11:54:36.764Z,3544.00
2022-10-22T11:55:36.760Z,3076.00
2022-10-22T11:56:36.755Z,2880.00
2022-10-22T11:57:36.753Z,2764.00
2022-10-22T11:58:36.729Z,2664.00
2022-10-22T11:59:36.706Z,2664.00
2022-10-22T12:00:36.702Z,2940.00
2022-10-22T12:01:36.723Z,3468.00
2022-10-22T12:02:36.668Z,3964.00
2022-10-22T12:03:36.664Z,3052.00
2022-10-22T12:04:36.685Z,2760.00
2022-10-22T12:05:36.646Z,2796.00
2022-10-22T12:06:36.655Z,3016.00
2022-10-22T12:07:36.621Z,3140.00
2022-10-22T12:08:36.637Z,2756.00
2022-10-22T12:09:36.608Z,2268.00
2022-10-22T12:10:36.588Z,2288.00
2022-10-22T12:11:36.576Z,2364.00
2022-10-22T12:12:36.581Z,2276.00
2022-10-22T12:13:36.573Z,1980.00
2022-10-22T12:14:36.543Z,2584.00
2022-10-22T12:15:36.536Z,2936.00
2022-10-22T12:16:56.147Z,2748.00
2022-10-22T12:17:36.532Z,2716.00
2022-10-22T12:18:36.527Z,3152.00
2022-10-22T12:19:36.486Z,2428.00
2022-10-22T12:20:36.473Z,1888.00
2022-10-22T12:21:36.477Z,3584.00
2022-10-22T12:22:36.486Z,3940.00
2022-10-22T12:23:36.459Z,3268.00
2022-10-22T12:24:36.458Z,3032.00
2022-10-22T12:25:36.429Z,4060.00
2022-10-22T12:26:36.419Z,3736.00
2022-10-22T12:27:36.445Z,3612.00
2022-10-22T12:28:36.391Z,3436.00
2022-10-22T12:29:36.393Z,3032.00
2022-10-22T12:30:36.947Z,2768.00
2022-10-22T12:31:36.358Z,2684.00
2022-10-22T12:32:36.346Z,1388.00
2022-10-22T12:33:36.365Z,2308.00
2022-10-22T12:34:36.340Z,2116.00
2022-10-22T12:35:36.320Z,1372.00
2022-10-22T12:36:36.324Z,2052.00
2022-10-22T12:37:36.299Z,2036.00
2022-10-22T12:38:36.298Z,2040.00
2022-10-22T12:39:36.281Z,1988.00
2022-10-22T12:40:36.285Z,1920.00
2022-10-22T12:41:36.256Z,1816.00
2022-10-22T12:42:36.234Z,1816.00
2022-10-22T12:43:36.276Z,1792.00
2022-10-22T12:44:36.214Z,1736.00
2022-10-22T12:45:36.205Z,1732.00
2022-10-22T12:46:36.210Z,1744.00
2022-10-22T12:47:36.190Z,1740.00
2022-10-22T12:48:36.181Z,1752.00